createdAt,value
2018-08-23T00:01:28.462Z,18.79
2018-08-23T00:04:02.687Z,18.89
2018-08-23T00:06:32.084Z,18.91
2018-08-23T00:09:01.175Z,18.72
2018-08-23T00:11:32.808Z,18.56
2018-08-23T00:14:05.724Z,18.56
2018-08-23T00:16:50.093Z,18.49
2018-08-23T00:19:19.034Z,18.51
2018-08-23T00:21:49.693Z,18.75
2018-08-23T00:24:20.960Z,18.78
2018-08-23T00:26:58.221Z,18.70
2018-08-23T00:29:28.838Z,18.59
2018-08-23T00:32:02.963Z,18.42
2018-08-23T00:34:36.835Z,18.38
2018-08-23T00:37:05.957Z,18.53
2018-08-23T00:39:34.951Z,18.58
2018-08-23T00:42:06.400Z,18.61
2018-08-23T00:44:50.528Z,18.57
2018-08-23T00:47:19.085Z,18.49
2018-08-23T00:49:47.535Z,18.37
2018-08-23T00:52:18.669Z,18.25
2018-08-23T00:54:47.284Z,18.07
2018-08-23T00:57:16.040Z,18.24
2018-08-23T00:59:50.538Z,18.10
2018-08-23T01:02:19.858Z,17.96
2018-08-23T01:04:49.268Z,18.24
2018-08-23T01:07:27.058Z,18.22
2018-08-23T01:09:57.029Z,18.21
2018-08-23T01:12:27.024Z,18.21
2018-08-23T01:14:55.387Z,18.12
2018-08-23T01:17:24.104Z,17.82
2018-08-23T01:20:00.549Z,18.13
2018-08-23T01:22:29.656Z,18.01
2018-08-23T01:25:00.644Z,18.10
2018-08-23T01:27:34.699Z,18.16
2018-08-23T01:30:05.651Z,18.13
2018-08-23T01:32:34.252Z,17.98
2018-08-23T01:35:02.669Z,17.86
2018-08-23T01:37:38.161Z,17.92
2018-08-23T01:40:09.043Z,17.91
2018-08-23T01:42:40.360Z,17.94
2018-08-23T01:45:10.849Z,17.95
2018-08-23T01:47:44.209Z,18.01
2018-08-23T01:50:14.871Z,18.06
2018-08-23T01:52:44.563Z,18.03
2018-08-23T01:55:16.332Z,18.06
2018-08-23T01:57:45.552Z,18.07
2018-08-23T02:00:23.475Z,18.06
2018-08-23T02:02:54.231Z,17.87
2018-08-23T02:05:24.119Z,17.79
2018-08-23T02:07:53.051Z,17.75
2018-08-23T02:10:22.489Z,17.74
2018-08-23T02:12:54.599Z,17.65
2018-08-23T02:15:24.055Z,17.56
2018-08-23T02:17:56.360Z,17.67
2018-08-23T02:20:27.200Z,17.64
2018-08-23T02:22:56.730Z,17.60
2018-08-23T02:25:25.413Z,17.63
2018-08-23T02:28:03.175Z,17.64
2018-08-23T02:30:53.025Z,17.57
2018-08-23T02:33:21.407Z,17.57
2018-08-23T02:36:00.932Z,17.32
2018-08-23T02:38:30.279Z,17.28
2018-08-23T02:40:59.672Z,17.30
2018-08-23T02:43:28.035Z,17.31
2018-08-23T02:45:56.396Z,17.31
2018-08-23T02:48:27.033Z,17.37
2018-08-23T02:50:56.196Z,17.04
2018-08-23T02:53:41.992Z,16.72
2018-08-23T02:56:21.136Z,17.00
2018-08-23T02:58:59.572Z,17.13
2018-08-23T03:01:33.468Z,17.18
2018-08-23T03:04:21.227Z,17.17
2018-08-23T03:06:53.570Z,17.11
2018-08-23T03:09:24.787Z,17.04
2018-08-23T03:11:54.651Z,17.14
2018-08-23T03:14:28.964Z,17.21
2018-08-23T03:17:22.033Z,17.25
2018-08-23T03:20:06.522Z,17.18
2018-08-23T03:22:36.632Z,17.17
2018-08-23T03:25:08.739Z,17.01
2018-08-23T03:27:37.718Z,16.96
2018-08-23T03:30:07.884Z,17.00
2018-08-23T03:32:36.315Z,17.07
2018-08-23T03:35:06.419Z,17.07
2018-08-23T03:37:36.284Z,17.08
2018-08-23T03:40:05.771Z,17.07
2018-08-23T03:42:41.024Z,17.11
2018-08-23T03:45:17.152Z,17.16
2018-08-23T03:47:52.740Z,17.16
2018-08-23T03:50:22.032Z,17.10
2018-08-23T03:52:55.226Z,17.11
2018-08-23T03:55:26.580Z,17.09
2018-08-23T03:58:01.617Z,17.02
2018-08-23T04:00:35.208Z,17.03
2018-08-23T04:03:10.164Z,17.02
2018-08-23T04:05:40.514Z,16.85
2018-08-23T04:08:09.116Z,16.77
2018-08-23T04:10:38.280Z,16.71
2018-08-23T04:13:07.624Z,16.64
2018-08-23T04:15:36.604Z,16.16
2018-08-23T04:18:17.133Z,16.46
2018-08-23T04:20:53.901Z,16.57
2018-08-23T04:23:22.205Z,16.66
2018-08-23T04:25:50.655Z,16.54
2018-08-23T04:28:19.040Z,16.72
2018-08-23T04:30:49.037Z,16.73
2018-08-23T04:33:17.380Z,16.63
2018-08-23T04:35:46.689Z,16.46
2018-08-23T04:38:18.753Z,16.39
2018-08-23T04:40:57.024Z,16.44
2018-08-23T04:43:26.179Z,16.54
2018-08-23T04:45:55.608Z,16.53
2018-08-23T04:48:24.479Z,16.47
2018-08-23T04:50:53.357Z,16.59
2018-08-23T04:53:23.020Z,16.56
2018-08-23T04:55:54.001Z,16.57
2018-08-23T04:58:23.631Z,16.72
2018-08-23T05:00:55.036Z,16.66
2018-08-23T05:03:24.839Z,16.50
2018-08-23T05:05:54.951Z,16.30
2018-08-23T05:08:23.840Z,16.16
2018-08-23T05:10:52.808Z,16.36
2018-08-23T05:13:22.179Z,16.21
2018-08-23T05:15:52.017Z,16.56
2018-08-23T05:18:21.592Z,16.74
2018-08-23T05:20:50.525Z,16.86
2018-08-23T05:23:21.021Z,16.94
2018-08-23T05:25:50.754Z,16.97
2018-08-23T05:28:20.898Z,17.07
2018-08-23T05:30:51.243Z,17.00
2018-08-23T05:33:21.748Z,17.35
2018-08-23T05:35:52.251Z,17.73
2018-08-23T05:38:21.816Z,17.50
2018-08-23T05:41:03.784Z,17.60
2018-08-23T05:43:35.774Z,17.78
2018-08-23T05:46:05.523Z,17.94
2018-08-23T05:48:34.641Z,17.70
2018-08-23T05:51:10.950Z,17.67
2018-08-23T05:53:43.775Z,18.18
2018-08-23T05:56:13.912Z,18.77
2018-08-23T05:58:47.540Z,19.49
2018-08-23T06:01:17.866Z,19.89
2018-08-23T06:03:46.752Z,19.49
2018-08-23T06:06:15.224Z,19.79
2018-08-23T06:08:50.969Z,20.49
2018-08-23T06:11:21.565Z,20.73
2018-08-23T06:13:51.933Z,21.58
2018-08-23T06:16:22.708Z,21.21
2018-08-23T06:18:54.345Z,21.95
2018-08-23T06:21:22.988Z,22.89
2018-08-23T06:24:01.520Z,21.41
2018-08-23T06:26:42.816Z,20.21
2018-08-23T06:29:22.581Z,20.26
2018-08-23T06:32:00.572Z,20.41
2018-08-23T06:34:34.837Z,22.13
2018-08-23T06:37:08.772Z,21.55
2018-08-23T06:39:39.128Z,21.42
2018-08-23T06:42:08.896Z,21.88
2018-08-23T06:44:44.795Z,22.40
2018-08-23T06:47:15.733Z,20.90
2018-08-23T06:49:45.137Z,20.75
2018-08-23T06:52:16.144Z,21.00
2018-08-23T06:54:46.781Z,20.88
2018-08-23T06:57:16.366Z,21.80
2018-08-23T06:59:46.928Z,22.40
2018-08-23T07:02:15.248Z,21.53
2018-08-23T07:04:45.812Z,22.47
2018-08-23T07:07:18.103Z,22.62
2018-08-23T07:09:48.279Z,23.36
2018-08-23T07:12:19.015Z,22.75
2018-08-23T07:14:49.317Z,22.75
2018-08-23T07:17:23.318Z,23.37
2018-08-23T07:19:53.172Z,23.68
2018-08-23T07:22:25.137Z,23.22
2018-08-23T07:24:58.376Z,23.43
2018-08-23T07:27:30.884Z,23.96
2018-08-23T07:30:00.691Z,23.94
2018-08-23T07:32:30.896Z,23.62
2018-08-23T07:35:09.644Z,23.42
2018-08-23T07:37:40.360Z,23.81
2018-08-23T07:40:16.137Z,23.71
2018-08-23T07:42:49.300Z,23.90
2018-08-23T07:45:17.680Z,24.16
2018-08-23T07:47:53.378Z,24.35
2018-08-23T07:50:21.744Z,24.33
2018-08-23T07:52:53.025Z,24.75
2018-08-23T07:55:22.060Z,25.55
2018-08-23T07:57:50.400Z,26.68
2018-08-23T08:00:47.048Z,26.69
2018-08-23T08:03:20.112Z,26.32
2018-08-23T08:05:49.713Z,26.14
2018-08-23T08:08:18.976Z,26.24
2018-08-23T08:10:48.044Z,27.87
2018-08-23T08:13:16.645Z,26.58
2018-08-23T08:15:46.546Z,27.01
2018-08-23T08:18:22.716Z,26.01
2018-08-23T08:20:58.854Z,27.24
2018-08-23T08:23:29.784Z,27.81
2018-08-23T08:25:59.753Z,28.31
2018-08-23T08:28:29.665Z,27.42
2018-08-23T08:30:59.786Z,28.78
2018-08-23T08:33:35.806Z,28.07
2018-08-23T08:36:06.918Z,27.73
2018-08-23T08:38:37.266Z,27.84
2018-08-23T08:41:08.623Z,28.00
2018-08-23T08:43:38.839Z,28.64
2018-08-23T08:46:07.912Z,29.18
2018-08-23T08:48:37.034Z,29.28
2018-08-23T08:51:26.304Z,29.25
2018-08-23T08:53:58.244Z,30.90
2018-08-23T08:56:39.426Z,30.56
2018-08-23T08:59:10.133Z,30.71
2018-08-23T09:01:38.781Z,29.86
2018-08-23T09:04:07.705Z,31.15
2018-08-23T09:06:42.763Z,30.92
2018-08-23T09:09:24.095Z,31.53
2018-08-23T09:11:53.485Z,29.93
2018-08-23T09:14:23.004Z,31.48
2018-08-23T09:16:52.765Z,31.31
2018-08-23T09:19:22.067Z,31.03
2018-08-23T09:22:01.919Z,30.63
2018-08-23T09:24:30.538Z,29.89
2018-08-23T09:26:58.896Z,29.97
2018-08-23T09:29:37.442Z,30.19
2018-08-23T09:32:21.200Z,30.21
2018-08-23T09:34:50.284Z,30.49
2018-08-23T09:37:19.067Z,30.60
2018-08-23T09:39:49.094Z,30.83
2018-08-23T09:42:20.453Z,30.39
2018-08-23T09:45:01.254Z,31.00
2018-08-23T09:47:31.128Z,31.32
2018-08-23T09:50:00.635Z,30.83
2018-08-23T09:52:35.061Z,31.25
2018-08-23T09:55:04.656Z,30.49
2018-08-23T09:57:33.764Z,30.31
2018-08-23T10:00:02.084Z,29.98
2018-08-23T10:02:39.260Z,30.32
2018-08-23T10:05:13.144Z,30.92
2018-08-23T10:07:46.945Z,31.01
2018-08-23T10:10:22.489Z,30.61
2018-08-23T10:12:57.219Z,31.04
2018-08-23T10:15:30.665Z,31.90
2018-08-23T10:18:05.695Z,31.90
2018-08-23T10:20:49.227Z,31.65
2018-08-23T10:23:23.592Z,31.65
2018-08-23T10:25:54.040Z,30.80
2018-08-23T10:28:28.711Z,32.26
2018-08-23T10:30:59.001Z,31.91
2018-08-23T10:33:27.809Z,32.25
2018-08-23T10:35:57.870Z,31.52
2018-08-23T10:38:29.108Z,31.96
2018-08-23T10:41:02.672Z,32.18
2018-08-23T10:43:38.721Z,32.91
2018-08-23T10:46:07.832Z,32.18
2018-08-23T10:48:38.820Z,32.13
2018-08-23T10:51:07.182Z,33.43
2018-08-23T10:53:36.378Z,32.00
2018-08-23T10:56:05.331Z,32.31
2018-08-23T10:58:35.527Z,32.03
2018-08-23T11:01:04.837Z,32.78
2018-08-23T11:03:34.408Z,32.93
2018-08-23T11:06:03.166Z,32.07
2018-08-23T11:08:34.744Z,31.44
2018-08-23T11:11:09.301Z,31.76
2018-08-23T11:13:46.447Z,32.18
2018-08-23T11:16:21.603Z,32.24
2018-08-23T11:18:56.397Z,32.42
2018-08-23T11:21:25.780Z,32.57
2018-08-23T11:23:59.106Z,32.82
2018-08-23T11:26:29.331Z,32.49
2018-08-23T11:29:00.089Z,31.54
2018-08-23T11:31:31.950Z,31.66
2018-08-23T11:34:02.176Z,31.25
2018-08-23T11:36:32.067Z,31.67
2018-08-23T11:39:01.569Z,31.95
2018-08-23T11:41:29.925Z,32.84
2018-08-23T11:44:02.495Z,32.76
2018-08-23T11:46:30.897Z,32.26
2018-08-23T11:49:02.011Z,32.49
2018-08-23T11:51:36.444Z,33.48
2018-08-23T11:54:05.767Z,33.30
2018-08-23T11:56:35.142Z,32.94
2018-08-23T11:59:03.885Z,33.39
2018-08-23T12:01:33.261Z,32.04
2018-08-23T12:04:04.611Z,33.21
2018-08-23T12:06:35.176Z,34.07
2018-08-23T12:09:05.704Z,33.20
2018-08-23T12:11:34.887Z,33.43
2018-08-23T12:14:03.762Z,33.34
2018-08-23T12:16:34.444Z,33.04
2018-08-23T12:19:05.069Z,32.33
2018-08-23T12:21:35.452Z,32.99
2018-08-23T12:24:05.269Z,32.84
2018-08-23T12:26:34.581Z,33.00
2018-08-23T12:29:09.792Z,33.14
2018-08-23T12:31:38.823Z,32.17
2018-08-23T12:34:09.460Z,32.96
2018-08-23T12:36:43.956Z,32.86
2018-08-23T12:39:18.087Z,33.36
2018-08-23T12:41:52.560Z,34.19
2018-08-23T12:44:22.404Z,34.18
2018-08-23T12:46:56.424Z,32.69
2018-08-23T12:49:26.991Z,32.78
2018-08-23T12:51:55.265Z,31.66
2018-08-23T12:54:24.916Z,31.52
2018-08-23T12:56:53.908Z,31.84
2018-08-23T12:59:23.124Z,31.83
2018-08-23T13:01:52.499Z,32.81
2018-08-23T13:04:22.942Z,33.04
2018-08-23T13:06:52.932Z,33.12
2018-08-23T13:09:23.000Z,33.98
2018-08-23T13:11:56.830Z,33.56
2018-08-23T13:14:26.425Z,33.13
2018-08-23T13:16:58.655Z,33.21
2018-08-23T13:19:27.409Z,33.24
2018-08-23T13:22:03.332Z,32.50
2018-08-23T13:24:35.175Z,32.48
2018-08-23T13:27:06.389Z,32.69
2018-08-23T13:29:35.384Z,32.83
2018-08-23T13:32:03.947Z,32.34
2018-08-23T13:34:34.543Z,31.91
2018-08-23T13:37:06.616Z,32.48
2018-08-23T13:39:36.168Z,32.92
2018-08-23T13:42:05.114Z,32.87
2018-08-23T13:44:39.044Z,33.08
2018-08-23T13:47:10.401Z,33.18
2018-08-23T13:49:39.999Z,33.18
2018-08-23T13:52:10.137Z,33.68
2018-08-23T13:54:42.359Z,33.28
2018-08-23T13:57:13.452Z,32.32
2018-08-23T13:59:42.792Z,32.50
2018-08-23T14:02:11.870Z,31.89
2018-08-23T14:04:44.121Z,31.96
2018-08-23T14:07:15.793Z,32.38
2018-08-23T14:09:44.752Z,32.48
2018-08-23T14:12:17.569Z,32.75
2018-08-23T14:14:46.772Z,32.19
2018-08-23T14:17:15.631Z,31.74
2018-08-23T14:19:45.204Z,31.58
2018-08-23T14:22:13.874Z,31.47
2018-08-23T14:24:42.244Z,31.22
2018-08-23T14:27:11.812Z,31.25
2018-08-23T14:29:41.604Z,30.57
2018-08-23T14:32:13.004Z,30.63
2018-08-23T14:34:43.912Z,31.38
2018-08-23T14:37:14.684Z,31.70
2018-08-23T14:39:43.521Z,31.67
2018-08-23T14:42:12.640Z,32.03
2018-08-23T14:44:42.762Z,31.58
2018-08-23T14:47:16.237Z,31.42
2018-08-23T14:49:46.011Z,31.38
2018-08-23T14:52:14.581Z,31.07
2018-08-23T14:54:44.088Z,31.24
2018-08-23T14:57:18.640Z,31.35
2018-08-23T14:59:48.102Z,31.03
2018-08-23T15:02:19.343Z,31.26
2018-08-23T15:04:49.975Z,31.11
2018-08-23T15:07:23.047Z,30.97
2018-08-23T15:09:52.705Z,30.98
2018-08-23T15:12:22.851Z,31.44
2018-08-23T15:14:52.696Z,31.33
2018-08-23T15:17:22.060Z,30.65
2018-08-23T15:19:50.752Z,30.63
2018-08-23T15:22:19.156Z,30.59
2018-08-23T15:24:49.464Z,30.64
2018-08-23T15:27:19.391Z,31.32
2018-08-23T15:29:49.821Z,31.20
2018-08-23T15:32:19.680Z,30.94
2018-08-23T15:34:49.275Z,30.70
2018-08-23T15:37:19.780Z,30.39
2018-08-23T15:39:49.813Z,30.31
2018-08-23T15:42:18.747Z,30.44
2018-08-23T15:44:48.232Z,30.53
2018-08-23T15:47:16.577Z,30.64
2018-08-23T15:49:45.009Z,30.65
2018-08-23T15:52:14.888Z,30.29
2018-08-23T15:54:44.081Z,30.12
2018-08-23T15:57:15.918Z,30.19
2018-08-23T15:59:45.465Z,29.90
2018-08-23T16:02:15.318Z,29.86
2018-08-23T16:04:45.146Z,29.76
2018-08-23T16:07:13.924Z,29.84
2018-08-23T16:09:44.187Z,29.83
2018-08-23T16:12:14.057Z,29.74
2018-08-23T16:14:43.389Z,29.59
2018-08-23T16:17:18.506Z,29.58
2018-08-23T16:19:53.048Z,29.51
2018-08-23T16:22:21.412Z,29.35
2018-08-23T16:24:50.752Z,29.08
2018-08-23T16:27:21.136Z,28.97
2018-08-23T16:31:26.707Z,28.86
2018-08-23T16:33:57.408Z,28.76
2018-08-23T16:36:29.025Z,28.78
2018-08-23T16:38:58.220Z,28.38
2018-08-23T16:41:27.352Z,26.25
2018-08-23T16:43:56.733Z,24.38
2018-08-23T16:46:25.259Z,23.01
2018-08-23T16:48:53.576Z,22.63
2018-08-23T16:51:21.933Z,22.06
2018-08-23T16:53:51.077Z,22.37
2018-08-23T16:56:19.721Z,22.09
2018-08-23T16:58:48.072Z,21.93
2018-08-23T17:01:17.078Z,21.80
2018-08-23T17:03:49.554Z,22.01
2018-08-23T17:06:19.608Z,21.65
2018-08-23T17:08:48.124Z,21.68
2018-08-23T17:11:16.566Z,21.72
2018-08-23T17:13:44.908Z,21.41
2018-08-23T17:16:19.548Z,21.46
2018-08-23T17:18:48.174Z,21.49
2018-08-23T17:21:17.815Z,22.07
2018-08-23T17:23:47.374Z,21.91
2018-08-23T17:26:15.879Z,22.15
2018-08-23T17:28:46.181Z,22.38
2018-08-23T17:31:14.622Z,22.35
2018-08-23T17:33:45.504Z,22.78
2018-08-23T17:36:16.405Z,22.72
2018-08-23T17:38:47.027Z,23.11
2018-08-23T17:41:15.348Z,23.19
2018-08-23T17:43:45.831Z,23.31
2018-08-23T17:46:15.386Z,23.23
2018-08-23T17:48:44.640Z,23.53
2018-08-23T17:51:13.154Z,23.60
2018-08-23T17:53:41.641Z,23.49
2018-08-23T17:56:09.985Z,22.84
2018-08-23T17:58:41.661Z,22.34
2018-08-23T18:01:10.973Z,23.08
2018-08-23T18:03:45.314Z,22.58
2018-08-23T18:06:13.791Z,22.90
2018-08-23T18:08:43.508Z,23.09
2018-08-23T18:11:12.139Z,23.25
2018-08-23T18:13:41.298Z,23.37
2018-08-23T18:16:15.013Z,23.21
2018-08-23T18:18:46.329Z,22.13
2018-08-23T18:21:15.025Z,22.06
2018-08-23T18:23:43.450Z,22.09
2018-08-23T18:26:13.065Z,21.30
2018-08-23T18:28:42.747Z,21.50
2018-08-23T18:31:12.244Z,21.41
2018-08-23T18:33:40.592Z,21.40
2018-08-23T18:36:09.228Z,21.08
2018-08-23T18:38:37.675Z,21.29
2018-08-23T18:41:06.467Z,21.22
2018-08-23T18:43:35.071Z,21.30
2018-08-23T18:46:03.447Z,21.47
2018-08-23T18:48:32.637Z,21.02
2018-08-23T18:51:00.982Z,21.01
2018-08-23T18:53:29.437Z,20.77
2018-08-23T18:55:58.973Z,20.85
2018-08-23T18:58:28.460Z,21.14
2018-08-23T19:00:57.556Z,21.23
2018-08-23T19:03:26.716Z,21.24
2018-08-23T19:05:56.191Z,21.10
2018-08-23T19:08:25.124Z,21.09
2018-08-23T19:10:54.200Z,21.23
2018-08-23T19:13:25.610Z,20.98
2018-08-23T19:20:14.193Z,20.71
2018-08-23T19:22:43.691Z,20.85
2018-08-23T19:25:15.873Z,20.86
2018-08-23T19:27:44.188Z,20.70
2018-08-23T19:30:13.210Z,20.77
2018-08-23T19:32:42.705Z,20.69
2018-08-23T19:35:11.481Z,20.87
2018-08-23T19:37:41.492Z,20.86
2018-08-23T19:40:10.218Z,20.91
2018-08-23T19:42:39.320Z,20.76
2018-08-23T19:45:08.377Z,20.89
2018-08-23T19:47:41.897Z,20.84
2018-08-23T19:50:11.095Z,20.81
2018-08-23T19:52:39.708Z,20.78
2018-08-23T19:55:09.848Z,20.86
2018-08-23T19:57:38.799Z,20.89
2018-08-23T20:00:09.043Z,20.87
2018-08-23T20:02:38.084Z,20.88
2018-08-23T20:05:06.587Z,20.83
2018-08-23T20:07:36.645Z,20.93
2018-08-23T20:10:05.436Z,20.91
2018-08-23T20:12:34.255Z,20.95
2018-08-23T20:15:02.593Z,20.93
2018-08-23T20:17:31.251Z,20.75
2018-08-23T20:20:00.263Z,21.01
2018-08-23T20:22:29.667Z,20.66
2018-08-23T20:24:58.523Z,20.83
2018-08-23T20:27:28.211Z,20.92
2018-08-23T20:29:58.007Z,21.06
2018-08-23T20:32:26.435Z,21.02
2018-08-23T20:34:55.296Z,20.85
2018-08-23T20:37:23.638Z,20.90
2018-08-23T20:39:52.399Z,20.69
2018-08-23T20:42:20.962Z,20.48
2018-08-23T20:44:49.815Z,20.53
2018-08-23T20:47:18.141Z,20.33
2018-08-23T20:49:47.384Z,20.31
2018-08-23T20:52:16.164Z,20.29
2018-08-23T20:54:46.307Z,20.23
2018-08-23T20:57:16.206Z,20.17
2018-08-23T20:59:45.593Z,20.12
2018-08-23T21:02:14.595Z,20.18
2018-08-23T21:04:43.547Z,20.39
2018-08-23T21:07:12.459Z,20.44
2018-08-23T21:09:40.829Z,20.40
2018-08-23T21:12:11.800Z,20.31
2018-08-23T21:14:40.106Z,20.20
2018-08-23T21:17:10.515Z,20.32
2018-08-23T21:19:38.876Z,20.25
2018-08-23T21:22:07.848Z,20.03
2018-08-23T21:24:36.770Z,19.70
2018-08-23T21:27:05.552Z,19.72
2018-08-23T21:29:38.601Z,19.67
2018-08-23T21:32:06.948Z,19.79
2018-08-23T21:34:36.913Z,19.60
2018-08-23T21:37:05.888Z,19.62
2018-08-23T21:39:35.750Z,19.78
2018-08-23T21:42:04.735Z,19.82
2018-08-23T21:44:34.059Z,19.61
2018-08-23T21:47:03.007Z,19.66
2018-08-23T21:49:32.710Z,19.65
2018-08-23T21:52:03.273Z,19.53
2018-08-23T21:54:32.284Z,19.56
2018-08-23T21:57:00.669Z,19.50
2018-08-23T21:59:28.998Z,19.44
2018-08-23T22:02:03.268Z,19.21
2018-08-23T22:04:36.296Z,19.45
2018-08-23T22:07:05.408Z,19.61
2018-08-23T22:09:34.259Z,19.63
2018-08-23T22:12:02.987Z,19.73
2018-08-23T22:14:31.852Z,19.74
2018-08-23T22:17:00.893Z,19.64
2018-08-23T22:19:30.016Z,19.58
2018-08-23T22:21:58.379Z,19.58
2018-08-23T22:24:28.167Z,19.50
2018-08-23T22:26:56.601Z,19.55
2018-08-23T22:29:25.150Z,19.54
2018-08-23T22:31:54.100Z,19.52
2018-08-23T22:34:22.464Z,19.50
2018-08-23T22:36:51.609Z,19.45
2018-08-23T22:39:19.917Z,19.44
2018-08-23T22:41:49.884Z,19.48
2018-08-23T22:44:20.054Z,19.52
2018-08-23T22:46:48.348Z,19.50
2018-08-23T22:49:17.391Z,19.39
2018-08-23T22:51:45.745Z,19.13
2018-08-23T22:54:14.836Z,19.12
2018-08-23T22:56:43.508Z,19.17
2018-08-23T22:59:12.736Z,19.00
2018-08-23T23:01:41.642Z,19.05
2018-08-23T23:04:17.093Z,18.92
2018-08-23T23:06:47.943Z,18.75
2018-08-23T23:09:17.256Z,18.68
2018-08-23T23:11:45.708Z,18.68
2018-08-23T23:14:14.101Z,18.83
2018-08-23T23:16:43.082Z,18.91
2018-08-23T23:19:12.337Z,18.88
2018-08-23T23:21:40.656Z,18.75
2018-08-23T23:24:14.176Z,18.90
2018-08-23T23:26:43.199Z,18.80
2018-08-23T23:29:11.552Z,18.75
2018-08-23T23:31:39.869Z,18.78
2018-08-23T23:34:08.224Z,18.80
2018-08-23T23:36:36.568Z,18.64
2018-08-23T23:39:06.764Z,18.81
2018-08-23T23:41:35.083Z,18.72
2018-08-23T23:44:04.285Z,18.90
2018-08-23T23:46:33.550Z,18.94
2018-08-23T23:49:02.207Z,19.01
2018-08-23T23:51:31.364Z,18.97
2018-08-23T23:53:59.850Z,18.92
2018-08-23T23:56:30.262Z,18.96
2018-08-23T23:59:00.762Z,18.99
